Time;durP1;ratioP1;P1;durP2;ratioP2;P2;SDS_P1;SDS_P2;PMS_P1;PMS_P2;Temp;Humidity;BMP_temperature;BMP_pressure;BME280_temperature;BME280_humidity;BME280_pressure;Samples;Min_cycle;Max_cycle;Signal;HPM_P1;HPM_P2
2021/11/15 00:03:25;;;;;;;73.70;38.37;;;;;4.20;102056.00;;;;10421847;28;20249;-78
2021/11/15 00:08:28;;;;;;;71.67;35.80;;;;;4.10;102063.00;;;;10407762;28;20251;-78
2021/11/15 00:13:30;;;;;;;74.77;36.57;;;;;4.00;102054.00;;;;10398255;28;20198;-78
2021/11/15 00:18:33;;;;;;;64.27;35.53;;;;;3.90;102055.00;;;;10438788;28;20199;-78
2021/11/15 00:23:35;;;;;;;59.60;34.57;;;;;3.80;102061.00;;;;10422457;28;20209;-78
2021/11/15 00:28:38;;;;;;;273.83;44.70;;;;;3.80;102058.00;;;;10425735;28;20689;-78
2021/11/15 00:33:40;;;;;;;159.90;37.17;;;;;3.80;102063.00;;;;10428918;28;20233;-78
2021/11/15 00:38:42;;;;;;;55.73;29.90;;;;;3.80;102055.00;;;;10429362;28;20198;-78
2021/11/15 00:43:44;;;;;;;57.83;30.33;;;;;3.70;102060.00;;;;10445405;28;20198;-78
2021/11/15 00:48:46;;;;;;;57.73;30.47;;;;;3.60;102066.00;;;;10427917;28;20261;-78
2021/11/15 00:53:48;;;;;;;118.10;37.10;;;;;3.60;102063.00;;;;10388630;28;20618;-78
2021/11/15 00:58:50;;;;;;;81.00;33.87;;;;;3.50;102066.00;;;;10374064;28;20199;-78
2021/11/15 01:03:52;;;;;;;66.30;33.13;;;;;3.40;102073.00;;;;10407526;28;20657;-78
2021/11/15 01:08:54;;;;;;;64.83;31.83;;;;;3.40;102066.00;;;;10412384;28;20218;-78
2021/11/15 01:13:56;;;;;;;60.00;32.87;;;;;3.30;102067.00;;;;10411912;28;20218;-78
2021/11/15 01:18:58;;;;;;;68.93;34.20;;;;;3.30;102069.00;;;;10411519;28;20195;-78
2021/11/15 01:24:02;;;;;;;67.23;34.70;;;;;3.30;102069.00;;;;10411922;28;20194;-78
2021/11/15 01:29:04;;;;;;;61.57;32.80;;;;;3.30;102069.00;;;;10436798;28;20674;-78
2021/11/15 01:34:07;;;;;;;74.17;34.17;;;;;3.40;102064.00;;;;10432872;28;20269;-78
2021/11/15 01:39:09;;;;;;;72.30;32.93;;;;;3.50;102060.00;;;;10397392;28;20195;-78
2021/11/15 01:44:11;;;;;;;73.57;36.37;;;;;3.70;102064.00;;;;10443999;28;20229;-78
2021/11/15 01:49:13;;;;;;;129.83;39.80;;;;;3.80;102061.00;;;;10411005;28;20620;-78
2021/11/15 01:54:15;;;;;;;234.10;47.27;;;;;3.90;102054.00;;;;10394477;28;20257;-78
2021/11/15 01:59:18;;;;;;;197.63;46.03;;;;;3.90;102054.00;;;;10410619;28;20202;-78
2021/11/15 02:04:20;;;;;;;212.73;49.63;;;;;3.90;102056.00;;;;10425729;28;20617;-78
2021/11/15 02:09:22;;;;;;;275.27;52.17;;;;;3.90;102066.00;;;;10426244;28;20210;-77
2021/11/15 02:14:24;;;;;;;196.10;43.97;;;;;3.90;102052.00;;;;10419166;28;20206;-78
2021/11/15 02:19:26;;;;;;;162.37;38.67;;;;;3.90;102043.00;;;;10403864;28;20198;-78
2021/11/15 02:24:28;;;;;;;190.23;41.27;;;;;3.90;102038.00;;;;10425588;28;20206;-78
2021/11/15 02:29:30;;;;;;;156.63;38.03;;;;;3.90;102037.00;;;;10439249;28;20210;-77
2021/11/15 02:34:32;;;;;;;177.27;37.43;;;;;4.00;102032.00;;;;10407903;28;20213;-78
2021/11/15 02:39:34;;;;;;;193.13;41.37;;;;;4.10;102033.00;;;;10425178;28;20861;-78
2021/11/15 02:44:36;;;;;;;230.93;46.80;;;;;4.20;102027.00;;;;10442718;28;20206;-78
2021/11/15 02:49:38;;;;;;;200.63;42.83;;;;;4.30;102020.00;;;;10381824;28;20269;-79
2021/11/15 02:54:40;;;;;;;202.00;45.23;;;;;4.40;102032.00;;;;10424224;28;20256;-79
2021/11/15 02:59:42;;;;;;;161.57;41.43;;;;;4.50;102034.00;;;;10410627;28;20198;-78
2021/11/15 03:04:44;;;;;;;159.30;40.30;;;;;4.60;102040.00;;;;10423554;28;20245;-79
2021/11/15 03:09:46;;;;;;;181.83;42.77;;;;;4.70;102034.00;;;;10390903;28;20213;-78
2021/11/15 03:14:49;;;;;;;130.23;39.53;;;;;4.70;102033.00;;;;10422666;28;20202;-79
2021/11/15 03:19:51;;;;;;;89.20;36.97;;;;;4.80;102032.00;;;;10404922;28;20190;-78
2021/11/15 03:24:55;;;;;;;74.13;36.30;;;;;4.80;102030.00;;;;10406581;28;20206;-78
2021/11/15 03:29:57;;;;;;;79.63;38.53;;;;;4.90;102035.00;;;;10411340;28;20226;-79
2021/11/15 03:35:02;;;;;;;85.57;39.10;;;;;5.00;102036.00;;;;10422344;28;20228;-78
2021/11/15 03:40:08;;;;;;;82.83;39.80;;;;;5.10;102036.00;;;;10419509;28;20191;-79
2021/11/15 03:45:12;;;;;;;84.87;40.43;;;;;5.20;102041.00;;;;10409054;28;20234;-79
2021/11/15 03:50:14;;;;;;;91.87;41.60;;;;;5.20;102040.00;;;;10405612;28;20206;-79
2021/11/15 03:55:18;;;;;;;81.83;37.40;;;;;5.20;102037.00;;;;10406160;28;20198;-78
2021/11/15 04:00:28;;;;;;;91.27;40.80;;;;;5.30;102048.00;;;;10396015;28;20198;-79
2021/11/15 04:05:35;;;;;;;91.43;41.23;;;;;5.30;102046.00;;;;10411624;28;20600;-78
2021/11/15 04:10:40;;;;;;;96.07;41.33;;;;;5.40;102044.00;;;;10387414;28;20229;-79
2021/11/15 04:15:43;;;;;;;93.40;42.37;;;;;5.50;102046.00;;;;10391123;28;20256;-79
2021/11/15 04:20:45;;;;;;;95.77;41.00;;;;;5.50;102052.00;;;;10422787;28;20198;-79
2021/11/15 04:25:47;;;;;;;103.40;43.47;;;;;5.60;102057.00;;;;10429231;28;20206;-79
2021/11/15 04:30:49;;;;;;;102.10;44.07;;;;;5.70;102050.00;;;;10428934;28;20237;-78
2021/11/15 04:35:52;;;;;;;122.47;47.27;;;;;5.80;102054.00;;;;10412196;28;20206;-78
2021/11/15 04:40:54;;;;;;;109.10;46.00;;;;;5.80;102062.00;;;;10445617;28;20249;-79
2021/11/15 04:45:56;;;;;;;120.97;46.03;;;;;5.90;102062.00;;;;10424094;28;20257;-79
2021/11/15 04:50:58;;;;;;;118.50;46.37;;;;;6.00;102070.00;;;;10445116;28;20233;-78
2021/11/15 04:56:00;;;;;;;122.70;46.90;;;;;6.10;102068.00;;;;10412070;28;20199;-78
2021/11/15 05:01:04;;;;;;;127.37;50.17;;;;;6.10;102069.00;;;;10404431;28;20234;-78
2021/11/15 05:06:06;;;;;;;147.80;52.23;;;;;6.20;102064.00;;;;10409548;28;20206;-78
2021/11/15 05:11:08;;;;;;;138.17;52.43;;;;;6.30;102061.00;;;;10444659;28;20221;-78
2021/11/15 05:16:11;;;;;;;148.47;54.73;;;;;6.30;102061.00;;;;10395902;28;20210;-78
2021/11/15 05:21:14;;;;;;;178.83;58.43;;;;;6.40;102060.00;;;;10393276;28;20664;-78
2021/11/15 05:26:15;;;;;;;179.07;60.13;;;;;6.50;102048.00;;;;10427055;28;20198;-78
2021/11/15 05:31:18;;;;;;;178.37;61.73;;;;;6.50;102056.00;;;;10402053;28;20776;-79
2021/11/15 05:36:20;;;;;;;187.00;63.60;;;;;6.60;102061.00;;;;10417436;28;20294;-78
2021/11/15 05:41:22;;;;;;;200.63;64.57;;;;;6.60;102071.00;;;;10410384;28;20578;-79
2021/11/15 05:46:24;;;;;;;238.70;72.10;;;;;6.70;102051.00;;;;10411004;28;20244;-78
2021/11/15 05:51:26;;;;;;;215.43;71.13;;;;;6.80;102056.00;;;;10443242;28;20260;-79
2021/11/15 05:56:28;;;;;;;222.83;71.10;;;;;6.80;102065.00;;;;10409727;28;20268;-79
2021/11/15 06:01:30;;;;;;;232.40;72.17;;;;;6.90;102061.00;;;;10409233;28;20253;-78
2021/11/15 06:06:32;;;;;;;238.43;72.57;;;;;6.90;102060.00;;;;10407278;28;20222;-78
2021/11/15 06:11:34;;;;;;;212.90;72.13;;;;;6.90;102067.00;;;;10425734;28;20261;-78
2021/11/15 06:16:36;;;;;;;224.20;72.97;;;;;7.00;102063.00;;;;10415385;28;20210;-79
2021/11/15 06:21:38;;;;;;;198.90;68.27;;;;;7.00;102069.00;;;;10425019;28;20616;-78
2021/11/15 06:26:40;;;;;;;192.00;67.33;;;;;7.00;102081.00;;;;10424227;28;20201;-78
2021/11/15 06:31:42;;;;;;;204.37;71.57;;;;;7.00;102089.00;;;;10407975;28;20226;-79
2021/11/15 06:36:44;;;;;;;199.03;67.03;;;;;7.00;102092.00;;;;10418940;28;20670;-78
2021/11/15 06:41:46;;;;;;;174.67;66.30;;;;;7.00;102092.00;;;;10424341;28;20198;-79
2021/11/15 06:46:49;;;;;;;180.87;65.10;;;;;7.10;102085.00;;;;10399825;28;20207;-78
2021/11/15 06:51:51;;;;;;;171.80;66.07;;;;;7.10;102089.00;;;;10405152;28;20222;-79
2021/11/15 06:56:53;;;;;;;157.30;60.63;;;;;7.10;102088.00;;;;10388501;28;20202;-79
2021/11/15 07:01:55;;;;;;;154.67;60.97;;;;;7.10;102101.00;;;;10437029;28;20608;-78
2021/11/15 07:06:57;;;;;;;158.60;62.47;;;;;7.10;102100.00;;;;10454373;28;20688;-79
2021/11/15 07:11:59;;;;;;;149.33;61.27;;;;;7.10;102102.00;;;;10406653;28;20222;-79
2021/11/15 07:17:01;;;;;;;146.07;61.17;;;;;7.10;102115.00;;;;10406524;28;20560;-78
2021/11/15 07:22:04;;;;;;;149.63;61.07;;;;;7.10;102107.00;;;;10379100;28;20431;-78
2021/11/15 07:27:07;;;;;;;140.23;59.40;;;;;7.10;102099.00;;;;10421669;28;20257;-78
2021/11/15 07:32:12;;;;;;;134.67;58.10;;;;;7.10;102097.00;;;;10407340;28;20230;-79
2021/11/15 07:37:14;;;;;;;134.97;57.33;;;;;7.10;102099.00;;;;10417213;28;20226;-78
2021/11/15 07:42:17;;;;;;;139.40;57.87;;;;;7.10;102098.00;;;;10416038;28;20190;-77
2021/11/15 07:47:19;;;;;;;127.93;55.80;;;;;7.10;102103.00;;;;10405197;28;20194;-78
2021/11/15 07:52:22;;;;;;;125.70;52.67;;;;;7.10;102106.00;;;;10404669;28;20682;-78
2021/11/15 07:57:24;;;;;;;130.90;53.17;;;;;7.10;102109.00;;;;10405195;28;20206;-78
2021/11/15 08:02:26;;;;;;;127.63;50.00;;;;;7.20;102112.00;;;;10439452;28;20293;-77
2021/11/15 08:07:28;;;;;;;121.60;51.70;;;;;7.10;102113.00;;;;10411185;28;20202;-79
2021/11/15 08:12:38;;;;;;;104.83;47.20;;;;;7.20;102115.00;;;;10402341;28;20597;-78
2021/11/15 08:17:42;;;;;;;100.37;45.47;;;;;7.20;102121.00;;;;10421708;28;20928;-78
2021/11/15 08:22:47;;;;;;;78.67;36.83;;;;;7.20;102119.00;;;;10424664;28;20240;-77
2021/11/15 08:27:49;;;;;;;79.17;36.43;;;;;7.20;102111.00;;;;10428694;28;20268;-78
2021/11/15 08:32:52;;;;;;;71.97;34.73;;;;;7.20;102114.00;;;;10414316;28;20226;-78
2021/11/15 08:38:16;;;;;;;65.60;33.53;;;;;7.20;102102.00;;;;10419542;28;20210;-79
2021/11/15 08:43:21;;;;;;;64.77;34.70;;;;;7.20;102117.00;;;;10437095;28;20206;-80
2021/11/15 08:48:30;;;;;;;62.33;32.43;;;;;7.30;102114.00;;;;10412350;28;20309;-79
2021/11/15 08:53:32;;;;;;;60.60;30.57;;;;;7.30;102109.00;;;;10409262;28;20206;-79
2021/11/15 08:58:36;;;;;;;55.47;32.07;;;;;7.40;102116.00;;;;10443018;28;20186;-79
2021/11/15 09:03:39;;;;;;;55.87;29.97;;;;;7.40;102127.00;;;;10414130;28;20789;-78
2021/11/15 09:08:42;;;;;;;57.37;30.87;;;;;7.40;102125.00;;;;10408057;28;20811;-78
2021/11/15 09:13:46;;;;;;;53.50;27.90;;;;;7.50;102133.00;;;;10420608;28;20776;-78
2021/11/15 09:18:48;;;;;;;59.33;30.37;;;;;7.50;102137.00;;;;10439295;28;20190;-79
2021/11/15 09:23:50;;;;;;;51.57;29.23;;;;;7.50;102122.00;;;;10432035;28;20195;-79
2021/11/15 09:28:54;;;;;;;54.03;28.90;;;;;7.40;102113.00;;;;10411536;28;20214;-79
2021/11/15 09:33:57;;;;;;;56.27;29.57;;;;;7.40;102109.00;;;;10423752;28;20234;-79
2021/11/15 09:38:59;;;;;;;47.67;27.67;;;;;7.40;102103.00;;;;10408400;28;20218;-78
2021/11/15 09:44:03;;;;;;;50.83;29.07;;;;;7.50;102104.00;;;;10411171;28;20194;-78
2021/11/15 09:49:10;;;;;;;52.40;27.87;;;;;7.50;102108.00;;;;10436496;28;20218;-78
2021/11/15 09:54:13;;;;;;;49.43;28.10;;;;;7.50;102113.00;;;;10439616;28;20281;-78
2021/11/15 09:59:16;;;;;;;49.93;27.93;;;;;7.60;102109.00;;;;10424693;28;20209;-78
2021/11/15 10:04:21;;;;;;;48.27;28.33;;;;;7.60;102106.00;;;;10442640;28;20202;-79
2021/11/15 10:09:31;;;;;;;45.70;27.20;;;;;7.60;102104.00;;;;10395625;28;20212;-78
2021/11/15 10:14:34;;;;;;;49.60;27.93;;;;;7.60;102120.00;;;;10419422;28;20216;-79
2021/11/15 10:19:36;;;;;;;51.97;28.93;;;;;7.60;102117.00;;;;10429264;28;20203;-79
2021/11/15 10:24:41;;;;;;;50.57;28.77;;;;;7.60;102109.00;;;;10380433;28;20212;-78
2021/11/15 10:29:47;;;;;;;50.03;27.50;;;;;7.60;102111.00;;;;10391584;28;20605;-78
2021/11/15 10:34:53;;;;;;;49.67;27.90;;;;;7.60;102111.00;;;;10421348;28;20209;-77
2021/11/15 10:39:57;;;;;;;49.10;28.43;;;;;7.60;102096.00;;;;10409721;28;20205;-78
2021/11/15 10:45:07;;;;;;;50.23;27.00;;;;;7.60;102102.00;;;;10409364;28;20225;-78
2021/11/15 10:50:16;;;;;;;47.63;27.57;;;;;7.60;102097.00;;;;10405049;28;20268;-78
2021/11/15 10:55:19;;;;;;;51.63;28.83;;;;;7.60;102102.00;;;;10406753;28;20249;-78
2021/11/15 11:00:37;;;;;;;51.77;27.83;;;;;7.50;102094.00;;;;10406697;28;20660;-79
2021/11/15 11:05:42;;;;;;;48.60;27.03;;;;;7.60;102098.00;;;;10402876;28;20308;-79
2021/11/15 11:10:52;;;;;;;52.63;27.03;;;;;7.50;102093.00;;;;10419745;28;20210;-78
2021/11/15 11:15:55;;;;;;;53.87;31.73;;;;;7.50;102080.00;;;;10399562;28;20194;-79
2021/11/15 11:26:21;;;;;;;56.70;30.63;;;;;7.60;102061.00;;;;10415129;28;20252;-80
2021/11/15 11:31:26;;;;;;;50.93;27.97;;;;;7.60;102063.00;;;;10386862;28;20222;-79
2021/11/15 11:36:32;;;;;;;53.50;28.97;;;;;7.60;102063.00;;;;10425889;28;20210;-79
2021/11/15 11:41:39;;;;;;;55.60;29.47;;;;;7.60;102062.00;;;;10412364;28;20199;-79
2021/11/15 11:46:42;;;;;;;55.67;29.03;;;;;7.60;102065.00;;;;10373281;28;20202;-79
2021/11/15 11:51:56;;;;;;;53.43;28.47;;;;;7.60;102067.00;;;;10382139;28;20220;-78
2021/11/15 11:57:12;;;;;;;57.67;29.70;;;;;7.60;102061.00;;;;10419991;28;20871;-79
2021/11/15 12:02:22;;;;;;;50.20;27.40;;;;;7.70;102048.00;;;;10417137;28;20597;-79
2021/11/15 12:07:52;;;;;;;51.50;28.43;;;;;7.70;102045.00;;;;10408747;28;20593;-79
2021/11/15 12:12:58;;;;;;;57.30;28.00;;;;;7.60;102044.00;;;;10390595;28;20586;-79
2021/11/15 12:18:15;;;;;;;57.87;28.03;;;;;7.50;102045.00;;;;10413211;28;20195;-79
2021/11/15 12:23:17;;;;;;;52.87;29.07;;;;;7.50;102061.00;;;;10417783;28;20205;-79
2021/11/15 12:28:29;;;;;;;58.73;29.00;;;;;7.40;102051.00;;;;10426343;28;20198;-79
2021/11/15 12:33:37;;;;;;;60.47;28.33;;;;;7.40;102033.00;;;;10426505;28;20724;-78
2021/11/15 12:38:50;;;;;;;59.90;30.90;;;;;7.50;102032.00;;;;10413633;28;20198;-79
2021/11/15 12:44:05;;;;;;;64.60;32.33;;;;;7.60;102016.00;;;;10407723;28;20187;-79
2021/11/15 12:49:30;;;;;;;57.87;29.60;;;;;7.60;102017.00;;;;10411055;28;20213;-79
2021/11/15 12:54:34;;;;;;;60.30;32.10;;;;;7.50;102003.00;;;;10417135;28;20206;-78
2021/11/15 12:59:40;;;;;;;60.83;30.87;;;;;7.50;102005.00;;;;10425265;28;20191;-78
2021/11/15 13:04:43;;;;;;;70.43;32.13;;;;;7.50;102000.00;;;;10409846;28;20285;-79
2021/11/15 13:09:56;;;;;;;54.20;28.50;;;;;7.50;102001.00;;;;10410045;28;20581;-79
2021/11/15 13:15:03;;;;;;;57.37;29.60;;;;;7.40;102003.00;;;;10440207;28;20195;-79
2021/11/15 13:20:07;;;;;;;58.70;28.17;;;;;7.40;101997.00;;;;10429222;28;20190;-79
2021/11/15 13:25:11;;;;;;;61.07;29.60;;;;;7.30;101999.00;;;;10416227;28;20209;-78
2021/11/15 13:30:17;;;;;;;62.03;28.83;;;;;7.40;102001.00;;;;10406398;28;20221;-78
2021/11/15 13:35:21;;;;;;;66.33;30.20;;;;;7.40;101992.00;;;;10410429;28;20202;-78
2021/11/15 13:40:23;;;;;;;60.90;27.87;;;;;7.40;101989.00;;;;10406236;28;20198;-79
2021/11/15 13:45:26;;;;;;;59.77;29.37;;;;;7.40;101986.00;;;;10401432;28;20198;-78
2021/11/15 13:50:28;;;;;;;58.43;26.50;;;;;7.40;101985.00;;;;10427508;28;20210;-78
2021/11/15 13:55:29;;;;;;;57.43;27.73;;;;;7.40;101980.00;;;;10404781;28;20202;-79
2021/11/15 14:00:32;;;;;;;57.50;25.67;;;;;7.40;101977.00;;;;10407053;28;20317;-78
2021/11/15 14:05:35;;;;;;;59.70;26.03;;;;;7.40;101981.00;;;;10439174;28;20209;-78
2021/11/15 14:10:38;;;;;;;56.93;27.90;;;;;7.40;101976.00;;;;10426204;28;20230;-78
2021/11/15 14:15:40;;;;;;;59.30;28.23;;;;;7.30;101971.00;;;;10414445;28;20206;-79
2021/11/15 14:20:42;;;;;;;59.77;28.13;;;;;7.30;101972.00;;;;10426557;28;20194;-79
2021/11/15 14:25:44;;;;;;;62.20;28.47;;;;;7.30;101967.00;;;;10427140;28;20202;-78
2021/11/15 14:30:45;;;;;;;63.63;32.17;;;;;7.30;101974.00;;;;10442614;28;20253;-79
2021/11/15 14:35:48;;;;;;;64.43;30.50;;;;;7.30;101966.00;;;;10418385;28;20210;-78
2021/11/15 14:40:51;;;;;;;59.73;29.47;;;;;7.20;101956.00;;;;10391591;28;20257;-78
2021/11/15 14:45:54;;;;;;;68.37;34.23;;;;;7.20;101964.00;;;;10384265;28;20191;-79
2021/11/15 14:50:56;;;;;;;56.07;27.33;;;;;7.20;101960.00;;;;10373804;28;20214;-78
2021/11/15 14:55:58;;;;;;;62.67;29.90;;;;;7.20;101971.00;;;;10397703;28;20195;-79
2021/11/15 15:01:01;;;;;;;60.73;29.17;;;;;7.10;101968.00;;;;10418607;28;20191;-78
2021/11/15 15:06:04;;;;;;;59.83;28.00;;;;;7.10;101965.00;;;;10415994;28;20198;-79
2021/11/15 15:11:06;;;;;;;64.17;29.27;;;;;7.10;101972.00;;;;10401141;28;20214;-79
2021/11/15 15:16:08;;;;;;;63.90;30.63;;;;;7.00;101969.00;;;;10385713;28;20194;-78
2021/11/15 15:21:11;;;;;;;56.07;26.17;;;;;7.00;101969.00;;;;10384775;28;20202;-78
2021/11/15 15:26:14;;;;;;;58.00;25.97;;;;;7.00;101964.00;;;;10417197;28;20227;-78
2021/11/15 15:31:16;;;;;;;48.43;24.23;;;;;7.00;101972.00;;;;10399342;28;20230;-79
2021/11/15 15:36:26;;;;;;;48.17;23.77;;;;;7.00;101973.00;;;;10389429;28;21036;-78
2021/11/15 15:41:30;;;;;;;49.40;23.50;;;;;7.00;101975.00;;;;10420671;28;20281;-78
2021/11/15 15:46:32;;;;;;;47.83;22.07;;;;;6.90;101977.00;;;;10403071;28;20187;-78
2021/11/15 15:51:34;;;;;;;46.03;23.03;;;;;6.90;101974.00;;;;10390340;28;20211;-77
2021/11/15 15:56:37;;;;;;;44.60;22.20;;;;;6.90;101978.00;;;;10397042;28;20292;-77
2021/11/15 16:01:39;;;;;;;41.80;21.27;;;;;6.90;101982.00;;;;10400378;28;20712;-77
2021/11/15 16:06:51;;;;;;;45.17;20.63;;;;;6.90;101968.00;;;;10398649;28;20191;-77
2021/11/15 16:22:12;;;;;;;36.73;19.03;;;;;6.80;101980.00;;;;10412420;28;20605;-78
2021/11/15 16:27:14;;;;;;;35.43;17.87;;;;;6.80;101976.00;;;;10417391;28;20190;-77
2021/11/15 16:32:16;;;;;;;35.00;17.37;;;;;6.70;101977.00;;;;10436240;28;20597;-78
2021/11/15 16:37:18;;;;;;;33.70;16.23;;;;;6.70;101979.00;;;;10397055;28;20976;-78
2021/11/15 16:42:20;;;;;;;25.73;13.60;;;;;6.70;101980.00;;;;10433540;28;20191;-77
2021/11/15 16:47:22;;;;;;;34.17;15.27;;;;;6.70;101980.00;;;;10410102;28;20210;-78
2021/11/15 16:52:24;;;;;;;28.73;15.17;;;;;6.60;101984.00;;;;10416958;28;20625;-77
2021/11/15 16:57:25;;;;;;;39.23;16.00;;;;;6.70;101986.00;;;;10408644;28;20198;-77
2021/11/15 17:02:27;;;;;;;33.80;15.67;;;;;6.70;101986.00;;;;10413726;28;20250;-77
2021/11/15 17:07:30;;;;;;;33.50;15.73;;;;;6.60;101988.00;;;;10420489;28;20264;-78
2021/11/15 17:12:50;;;;;;;32.10;16.20;;;;;6.60;101989.00;;;;10411231;28;20254;-77
2021/11/15 17:17:53;;;;;;;32.87;15.33;;;;;6.60;101995.00;;;;10439890;28;20221;-78
2021/11/15 17:23:02;;;;;;;35.20;16.50;;;;;6.60;102000.00;;;;10453097;28;20194;-77
2021/11/15 17:28:04;;;;;;;31.47;16.30;;;;;6.50;102002.00;;;;10419151;28;20217;-77
2021/11/15 17:33:06;;;;;;;36.70;16.17;;;;;6.50;102016.00;;;;10419660;28;20726;-77
2021/11/15 17:38:14;;;;;;;37.80;17.00;;;;;6.50;102017.00;;;;10419061;28;20229;-78
2021/11/15 17:43:18;;;;;;;34.17;15.93;;;;;6.50;102017.00;;;;10405669;28;20256;-77
2021/11/15 17:48:21;;;;;;;31.03;16.70;;;;;6.50;102011.00;;;;10424206;28;20202;-77
2021/11/15 17:53:30;;;;;;;31.40;14.53;;;;;6.50;102010.00;;;;10392805;28;20230;-78
2021/11/15 18:03:48;;;;;;;32.07;15.70;;;;;6.50;102007.00;;;;10401355;28;20245;-77
2021/11/15 18:08:49;;;;;;;31.60;15.27;;;;;6.50;102013.00;;;;10420346;28;20257;-78
2021/11/15 18:13:56;;;;;;;33.23;16.23;;;;;6.40;102015.00;;;;10398516;28;20237;-78
2021/11/15 18:18:59;;;;;;;39.17;17.60;;;;;6.40;102019.00;;;;10411805;28;20212;-77
2021/11/15 18:24:01;;;;;;;36.10;16.13;;;;;6.40;102019.00;;;;10404119;28;20194;-77
2021/11/15 18:29:05;;;;;;;43.73;19.50;;;;;6.40;102028.00;;;;10369432;28;20657;-78
2021/11/15 18:34:08;;;;;;;42.77;20.63;;;;;6.40;102018.00;;;;10419122;28;20220;-78
2021/11/15 18:39:10;;;;;;;49.23;21.97;;;;;6.40;102023.00;;;;10405401;28;20244;-77
2021/11/15 18:44:12;;;;;;;49.30;22.20;;;;;6.40;102038.00;;;;10404507;28;20654;-77
2021/11/15 18:49:14;;;;;;;51.47;22.23;;;;;6.40;102038.00;;;;10405452;28;20261;-77
2021/11/15 18:54:22;;;;;;;47.20;22.77;;;;;6.30;102029.00;;;;10412919;28;20190;-77
2021/11/15 18:59:25;;;;;;;53.00;23.77;;;;;6.30;102036.00;;;;10405311;28;20728;-77
2021/11/15 19:04:30;;;;;;;53.63;23.57;;;;;6.30;102029.00;;;;10404247;28;20202;-77
2021/11/15 19:09:35;;;;;;;50.43;22.80;;;;;6.30;102023.00;;;;10402434;28;20209;-77
2021/11/15 19:14:40;;;;;;;51.60;24.37;;;;;6.30;102030.00;;;;10382669;28;20285;-78
2021/11/15 19:19:42;;;;;;;53.10;23.80;;;;;6.30;102031.00;;;;10407419;28;20209;-78
2021/11/15 19:24:47;;;;;;;53.27;23.83;;;;;6.20;102017.00;;;;10389055;28;20198;-78
2021/11/15 19:29:49;;;;;;;53.70;23.73;;;;;6.20;102010.00;;;;10419570;28;20262;-77
2021/11/15 19:34:53;;;;;;;49.40;24.30;;;;;6.20;102016.00;;;;10394842;28;20224;-77
2021/11/15 19:39:56;;;;;;;55.73;23.27;;;;;6.20;102013.00;;;;10404629;28;20268;-78
2021/11/15 19:44:58;;;;;;;52.37;24.40;;;;;6.20;102015.00;;;;10388949;28;20649;-77
2021/11/15 19:50:04;;;;;;;56.87;24.77;;;;;6.20;102023.00;;;;10426239;28;20273;-77
2021/11/15 19:55:11;;;;;;;49.33;23.43;;;;;6.20;102009.00;;;;10433140;28;20209;-78
2021/11/15 20:00:27;;;;;;;44.63;23.03;;;;;6.20;102017.00;;;;10417440;28;20228;-78
2021/11/15 20:05:38;;;;;;;51.13;22.90;;;;;6.20;102016.00;;;;10417544;28;20245;-78
2021/11/15 20:10:58;;;;;;;50.33;24.33;;;;;6.20;102016.00;;;;10412928;28;20214;-78
2021/11/15 20:16:00;;;;;;;47.57;22.77;;;;;6.20;102018.00;;;;10428047;28;20256;-77
2021/11/15 20:21:03;;;;;;;42.80;20.63;;;;;6.20;102015.00;;;;10417556;28;20212;-78
2021/11/15 20:26:06;;;;;;;45.87;21.20;;;;;6.20;102016.00;;;;10410062;28;20245;-77
2021/11/15 20:31:09;;;;;;;44.77;22.63;;;;;6.20;102010.00;;;;10426333;28;20680;-78
2021/11/15 20:36:13;;;;;;;50.10;22.77;;;;;6.20;102009.00;;;;10417086;28;20293;-78
2021/11/15 20:41:16;;;;;;;42.50;20.93;;;;;6.20;102002.00;;;;10397701;28;20198;-78
2021/11/15 20:46:18;;;;;;;48.93;22.80;;;;;6.20;102014.00;;;;10401403;28;20190;-77
2021/11/15 20:51:20;;;;;;;45.63;22.10;;;;;6.10;102012.00;;;;10442862;28;20218;-78
2021/11/15 20:56:22;;;;;;;44.10;22.03;;;;;6.20;102018.00;;;;10435785;28;20224;-78
2021/11/15 21:01:25;;;;;;;42.87;21.53;;;;;6.10;102015.00;;;;10440155;28;20305;-77
2021/11/15 21:06:27;;;;;;;46.13;22.67;;;;;6.10;102026.00;;;;10424385;28;20712;-78
2021/11/15 21:11:31;;;;;;;43.47;21.50;;;;;6.20;102026.00;;;;10418681;28;20268;-78
2021/11/15 21:16:33;;;;;;;45.63;21.80;;;;;6.20;102022.00;;;;10419179;28;20214;-77
2021/11/15 21:21:38;;;;;;;51.70;26.87;;;;;6.10;102020.00;;;;10396959;28;20201;-78
2021/11/15 21:26:41;;;;;;;50.90;25.47;;;;;6.10;102034.00;;;;10404761;28;20195;-78
2021/11/15 21:31:44;;;;;;;47.73;24.30;;;;;6.10;102024.00;;;;10421135;28;20280;-77
2021/11/15 21:36:47;;;;;;;51.17;26.20;;;;;6.10;102023.00;;;;10434859;28;20203;-78
2021/11/15 21:41:50;;;;;;;55.33;31.20;;;;;6.10;102032.00;;;;10403571;28;20186;-77
2021/11/15 21:46:52;;;;;;;58.00;28.97;;;;;6.10;102024.00;;;;10424128;28;20195;-78
2021/11/15 21:52:08;;;;;;;55.43;30.60;;;;;6.10;102028.00;;;;10423965;28;20240;-77
2021/11/15 21:57:11;;;;;;;50.43;27.17;;;;;6.10;102033.00;;;;10396311;28;20253;-77
2021/11/15 22:02:19;;;;;;;52.97;27.47;;;;;6.10;102029.00;;;;10435554;28;20206;-78
2021/11/15 22:07:22;;;;;;;49.70;28.37;;;;;6.10;102030.00;;;;10420831;28;20190;-78
2021/11/15 22:12:24;;;;;;;50.53;27.83;;;;;6.10;102033.00;;;;10406052;28;20218;-78
2021/11/15 22:17:26;;;;;;;51.47;28.23;;;;;6.10;102022.00;;;;10429170;28;20211;-77
2021/11/15 22:22:28;;;;;;;47.33;28.00;;;;;6.10;102018.00;;;;10403890;28;20708;-78
2021/11/15 22:27:31;;;;;;;48.00;25.93;;;;;6.10;102013.00;;;;10439511;28;20233;-78
2021/11/15 22:32:33;;;;;;;43.73;23.43;;;;;6.10;102013.00;;;;10431658;28;20716;-78
2021/11/15 22:37:36;;;;;;;46.53;23.77;;;;;6.10;102007.00;;;;10402770;28;20589;-77
2021/11/15 22:42:38;;;;;;;46.13;25.43;;;;;6.10;102015.00;;;;10410664;28;20198;-78
2021/11/15 22:47:40;;;;;;;44.60;24.77;;;;;6.10;102020.00;;;;10421283;28;20642;-78
2021/11/15 22:52:41;;;;;;;49.17;28.57;;;;;6.10;102017.00;;;;10424992;28;20226;-78
2021/11/15 22:57:43;;;;;;;43.13;25.23;;;;;6.10;102012.00;;;;10424309;28;20241;-78
2021/11/15 23:02:50;;;;;;;43.53;24.73;;;;;6.10;102005.00;;;;10423858;28;20201;-78
2021/11/15 23:07:53;;;;;;;51.27;25.87;;;;;6.10;101995.00;;;;10407370;28;20237;-78
2021/11/15 23:12:56;;;;;;;47.27;26.00;;;;;6.10;102004.00;;;;10440102;28;20277;-78
2021/11/15 23:18:01;;;;;;;48.10;24.40;;;;;6.10;102002.00;;;;10422924;28;20244;-78
2021/11/15 23:23:04;;;;;;;48.27;25.83;;;;;6.10;102006.00;;;;10379876;28;20207;-78
2021/11/15 23:28:07;;;;;;;44.37;25.20;;;;;6.10;101997.00;;;;10420008;28;20225;-78
2021/11/15 23:33:12;;;;;;;48.30;27.90;;;;;6.10;101997.00;;;;10422320;28;20697;-78
2021/11/15 23:38:14;;;;;;;49.90;27.00;;;;;6.10;101996.00;;;;10390683;28;20286;-78
2021/11/15 23:43:16;;;;;;;46.77;25.47;;;;;6.10;101992.00;;;;10408341;28;20206;-78
2021/11/15 23:48:19;;;;;;;47.00;24.97;;;;;6.10;101988.00;;;;10422316;28;20197;-78
2021/11/15 23:53:23;;;;;;;46.27;25.17;;;;;6.00;101987.00;;;;10439264;28;20222;-78
2021/11/15 23:58:26;;;;;;;49.53;25.63;;;;;6.00;101974.00;;;;10423132;28;20201;-78
